首页
METAR-TAF:

METAR-TAF

机场 :

博阿維斯塔, 羅賴馬州, 巴西

纬度: 02-50N, 经度: 060-42W, 海拔: 84米

当前天气观测

该预报发布于43分钟前的12:00 UTC
风速7节,风向东南
温度 26°C
湿度 84%
气压 1017 hPa
能见度10公里或以上
散云层高于600英尺
散云层高于2000英尺
少量云层高于3000英尺, 塔状积云.
多云层高于7000英尺
附近有阵雨,

METAR: SBBV 251200Z 14007KT 9999 VCSH SCT006 SCT020 FEW030TCU BKN070 26/23 Q1017

时间: 08:43 (12:43 UTC)

预报

该预报发布于3小时和23分钟前的09:20 UTC
预报有效从25日的 12点(UTC)到 26日的 12点(UTC)
风速5节,风向西转西北
能見度: 5000
多云层高于1400英尺
少量云层高于3000英尺, 塔状积云.
成为
从 25日的 14点(UTC)到 25日的 16点(UTC)
风速5节,风向西转西南
能見度: 7000
多云层高于2000英尺
少量云层高于3500英尺, 塔状积云.
成为
从 25日的 21点(UTC)到 25日的 23点(UTC)
能見度: 6000
多云层高于1700英尺
少量云层高于3000英尺, 塔状积云.
阵雨
成为
从 26日的 02点(UTC)到 26日的 04点(UTC)
风速5节,风向北转西北
能見度: 8000
散云层高于3000英尺
少量云层高于4000英尺, 塔状积云.
成为
从 26日的 08点(UTC)到 26日的 10点(UTC)
能見度: 6000
多云层高于1500英尺
少量云层高于2500英尺, 塔状积云.

TAF: SBBV 250920Z 2512/2612 30005KT 5000 RA BKN014 FEW030TCU TX29/2518Z TN24/2609Z BECMG 2514/2516 25005KT 7000 NSW BKN020 FEW035TCU BECMG 2521/2523 6000 SHRA BKN017 FEW030TCU BECMG 2602/2604 33005KT 8000 NSW SCT030 FEW040TCU BECMG 2608/2610 6000 RA BKN015 FEW025TCU RMK PGB

超过4000个机场的气象观测和天气预报(METAR&TAF报告)。

可查询的气象台以黄色和红色小点在地图上表示。

将鼠标移到小点上方,可查看气象台名称。

然后点击查看天气观测和预报。

如需切换地图:点击带黑十字的绿色按钮放大地图;点击带横线的绿色按钮缩小地图;或者点击绿色箭头查看邻近地区的地图。


METAR-TAF: